Time;durP1;ratioP1;P1;durP2;ratioP2;P2;SDS_P1;SDS_P2;PMS_P1;PMS_P2;Temp;Humidity;BMP_temperature;BMP_pressure;BME280_temperature;BME280_humidity;BME280_pressure;Samples;Min_cycle;Max_cycle;Signal;HPM_P1;HPM_P2
2023/12/06 00:01:19;;;;;;;;;;;;;;;23.18;29.56;100904.44;5043845;28;19922;-45
2023/12/06 00:03:45;;;;;;;;;;;;;;;23.18;29.60;100901.75;5028953;28;19924;-44
2023/12/06 00:06:10;;;;;;;;;;;;;;;23.18;29.18;100907.16;5010470;28;19925;-44
2023/12/06 00:08:35;;;;;;;;;;;;;;;23.19;29.30;100898.84;5020788;28;19912;-45
2023/12/06 00:11:00;;;;;;;;;;;;;;;23.17;29.45;100906.31;5039353;28;19913;-48
2023/12/06 00:13:26;;;;;;;;;;;;;;;23.17;29.56;100905.50;5019016;28;19956;-47
2023/12/06 00:15:51;;;;;;;;;;;;;;;23.15;29.48;100899.41;5021355;28;19981;-45
2023/12/06 00:18:16;;;;;;;;;;;;;;;23.14;29.44;100909.44;5035875;28;19914;-43
2023/12/06 00:20:41;;;;;;;;;;;;;;;23.12;29.56;100916.09;5019987;28;19914;-45
2023/12/06 00:23:07;;;;;;;;;;;;;;;23.11;29.25;100917.97;5010068;28;20003;-45
2023/12/06 00:25:32;;;;;;;;;;;;;;;23.11;29.42;100917.97;5013601;28;19916;-45
2023/12/06 00:27:57;;;;;;;;;;;;;;;23.14;29.18;100928.41;5025066;28;19914;-43
2023/12/06 00:30:22;;;;;;;;;;;;;;;23.13;29.19;100923.19;5024778;28;19923;-47
2023/12/06 00:32:47;;;;;;;;;;;;;;;23.11;29.28;100930.69;5034450;28;20011;-43
2023/12/06 00:35:12;;;;;;;;;;;;;;;23.10;29.65;100932.56;5033835;28;19928;-45
2023/12/06 00:37:38;;;;;;;;;;;;;;;23.09;29.59;100938.19;5008938;28;20028;-47
2023/12/06 00:40:03;;;;;;;;;;;;;;;23.09;29.64;100936.31;5024384;28;20024;-45
2023/12/06 00:42:28;;;;;;;;;;;;;;;23.08;29.57;100937.34;5038706;28;20348;-45
2023/12/06 00:44:54;;;;;;;;;;;;;;;23.09;29.21;100949.03;5013297;28;19918;-46
2023/12/06 00:47:19;;;;;;;;;;;;;;;23.10;29.27;100950.69;5022267;28;19954;-48
2023/12/06 00:49:44;;;;;;;;;;;;;;;23.09;29.49;100947.16;5045694;28;19913;-45
2023/12/06 00:52:09;;;;;;;;;;;;;;;23.07;29.41;100957.38;5023208;28;19914;-45
2023/12/06 00:54:34;;;;;;;;;;;;;;;23.06;29.42;100952.97;5013694;28;19932;-44
2023/12/06 00:57:00;;;;;;;;;;;;;;;23.06;29.27;100958.38;5036258;28;19940;-46
2023/12/06 00:59:25;;;;;;;;;;;;;;;23.05;29.60;100961.31;5020737;28;19919;-46
2023/12/06 01:01:50;;;;;;;;;;;;;;;23.06;29.40;100960.25;5026596;28;19920;-45
2023/12/06 01:04:15;;;;;;;;;;;;;;;23.03;29.31;100964.22;5040727;28;19913;-43
2023/12/06 01:06:40;;;;;;;;;;;;;;;23.03;29.70;100963.38;5037713;28;19920;-45
2023/12/06 01:09:06;;;;;;;;;;;;;;;23.03;29.55;100964.22;5019608;28;19917;-47
2023/12/06 01:11:32;;;;;;;;;;;;;;;23.03;29.42;100968.81;5035459;28;19924;-44
2023/12/06 01:13:57;;;;;;;;;;;;;;;23.03;29.53;100975.06;5026674;28;19918;-47
2023/12/06 01:16:22;;;;;;;;;;;;;;;23.03;29.63;100971.53;5067837;28;19960;-48
2023/12/06 01:18:47;;;;;;;;;;;;;;;23.03;29.35;100968.81;5032075;28;19953;-45
2023/12/06 01:21:12;;;;;;;;;;;;;;;23.01;29.28;100974.41;5057429;28;19913;-43
2023/12/06 01:23:37;;;;;;;;;;;;;;;23.01;29.67;100987.97;5020035;28;19941;-45
2023/12/06 01:26:03;;;;;;;;;;;;;;;23.01;29.31;100984.41;5049310;28;19913;-46
2023/12/06 01:28:28;;;;;;;;;;;;;;;22.98;29.54;100985.66;5030772;28;19914;-47
2023/12/06 01:30:53;;;;;;;;;;;;;;;22.97;29.25;100983.13;5009219;28;20359;-44
2023/12/06 01:33:18;;;;;;;;;;;;;;;22.98;29.66;100987.50;5014796;28;19914;-45
2023/12/06 01:35:43;;;;;;;;;;;;;;;22.97;29.65;100989.38;5085019;28;19917;-45
2023/12/06 01:38:10;;;;;;;;;;;;;;;22.97;29.60;100991.25;5068327;28;19942;-45
2023/12/06 01:40:39;;;;;;;;;;;;;;;22.95;29.67;100992.28;5017364;28;19981;-44
2023/12/06 01:43:05;;;;;;;;;;;;;;;22.93;29.52;100990.78;5026053;28;19936;-44
2023/12/06 01:45:30;;;;;;;;;;;;;;;22.92;29.67;100994.56;5017712;28;19913;-46
2023/12/06 01:47:55;;;;;;;;;;;;;;;22.91;29.59;100999.13;5088312;28;19953;-44
2023/12/06 01:50:20;;;;;;;;;;;;;;;22.90;29.45;100997.47;5069708;28;19921;-47
2023/12/06 01:52:46;;;;;;;;;;;;;;;22.92;29.46;101000.81;5065536;28;20168;-44
2023/12/06 01:55:11;;;;;;;;;;;;;;;22.90;29.44;100997.47;5015263;28;20004;-45
2023/12/06 01:57:36;;;;;;;;;;;;;;;22.90;29.37;101008.31;5064754;28;19916;-48
2023/12/06 02:00:03;;;;;;;;;;;;;;;22.88;29.41;101004.06;5019597;28;19925;-45
2023/12/06 02:02:28;;;;;;;;;;;;;;;22.88;29.54;101012.19;5011650;28;19996;-44
2023/12/06 02:04:53;;;;;;;;;;;;;;;22.87;29.65;101011.38;5004168;28;19914;-46
2023/12/06 02:07:18;;;;;;;;;;;;;;;22.86;29.70;101008.84;5064121;28;20190;-48
2023/12/06 02:09:44;;;;;;;;;;;;;;;22.87;29.66;101016.78;5078859;28;19913;-44
2023/12/06 02:12:09;;;;;;;;;;;;;;;22.86;29.54;101009.69;5019194;28;20436;-44
2023/12/06 02:14:35;;;;;;;;;;;;;;;22.87;29.58;101007.81;5038944;28;19974;-46
2023/12/06 02:17:03;;;;;;;;;;;;;;;22.84;29.33;101011.75;5011530;28;19925;-46
2023/12/06 02:19:28;;;;;;;;;;;;;;;22.84;29.58;101017.16;5071183;28;19921;-46
2023/12/06 02:21:54;;;;;;;;;;;;;;;22.81;29.71;101020.28;5048233;28;19914;-46
2023/12/06 02:24:19;;;;;;;;;;;;;;;22.83;29.62;101025.50;5020102;28;20016;-46
2023/12/06 02:26:45;;;;;;;;;;;;;;;22.80;29.67;101020.44;5069116;28;19937;-44
2023/12/06 02:29:10;;;;;;;;;;;;;;;22.79;29.32;101022.31;5026880;28;19922;-48
2023/12/06 02:31:35;;;;;;;;;;;;;;;22.77;29.78;101019.00;5021143;28;19918;-46
2023/12/06 02:34:04;;;;;;;;;;;;;;;22.74;29.65;101019.34;5007956;28;19922;-45
2023/12/06 02:36:29;;;;;;;;;;;;;;;22.74;29.76;101029.38;5070399;28;19914;-47
2023/12/06 02:38:54;;;;;;;;;;;;;;;22.74;29.82;101030.19;5064918;28;19924;-47
2023/12/06 02:41:19;;;;;;;;;;;;;;;22.71;29.87;101031.41;5026091;28;19969;-48
2023/12/06 02:43:44;;;;;;;;;;;;;;;22.71;29.58;101036.00;5023839;28;19925;-45
2023/12/06 02:46:10;;;;;;;;;;;;;;;22.68;29.67;101037.25;5025353;28;19921;-48
2023/12/06 02:48:35;;;;;;;;;;;;;;;22.68;29.57;101033.66;5016390;28;19913;-46
2023/12/06 02:51:00;;;;;;;;;;;;;;;22.68;29.73;101037.25;5041246;28;19952;-48
2023/12/06 02:53:25;;;;;;;;;;;;;;;22.67;29.84;101038.25;5036716;28;19922;-44
2023/12/06 02:55:51;;;;;;;;;;;;;;;22.67;29.60;101046.38;5019390;28;19926;-47
2023/12/06 02:58:16;;;;;;;;;;;;;;;22.65;29.86;101039.47;5015971;28;19912;-47
2023/12/06 03:00:41;;;;;;;;;;;;;;;22.65;29.82;101037.59;5034817;28;20015;-46
2023/12/06 03:03:06;;;;;;;;;;;;;;;22.62;29.88;101039.84;5041764;28;19917;-48
2023/12/06 03:05:31;;;;;;;;;;;;;;;22.62;29.50;101043.41;5043816;28;19914;-45
2023/12/06 03:07:57;;;;;;;;;;;;;;;22.64;29.52;101052.19;5030378;28;19918;-44
2023/12/06 03:10:22;;;;;;;;;;;;;;;22.61;29.88;101038.19;5009952;28;19918;-46
2023/12/06 03:12:47;;;;;;;;;;;;;;;22.58;29.98;101041.25;5014901;28;19914;-48
2023/12/06 03:15:12;;;;;;;;;;;;;;;22.59;29.60;101035.63;5023964;28;19918;-45
2023/12/06 03:17:37;;;;;;;;;;;;;;;22.58;29.77;101035.84;5035153;28;19922;-49
2023/12/06 03:20:06;;;;;;;;;;;;;;;22.56;29.86;101038.75;5010599;28;19920;-46
2023/12/06 03:22:31;;;;;;;;;;;;;;;22.56;29.70;101037.91;5080104;28;19926;-48
2023/12/06 03:24:56;;;;;;;;;;;;;;;22.56;29.74;101043.34;5029623;28;19920;-48
2023/12/06 03:27:22;;;;;;;;;;;;;;;22.55;29.76;101044.34;5015717;28;19924;-47
2023/12/06 03:29:47;;;;;;;;;;;;;;;22.52;29.64;101051.00;5005583;28;19913;-46
2023/12/06 03:32:12;;;;;;;;;;;;;;;22.54;29.60;101053.50;5026225;28;19914;-43
2023/12/06 03:34:37;;;;;;;;;;;;;;;22.54;29.88;101057.06;5008034;28;19920;-44
2023/12/06 03:37:03;;;;;;;;;;;;;;;22.55;29.70;101050.59;5022593;28;19917;-42
2023/12/06 03:39:28;;;;;;;;;;;;;;;22.55;29.93;101056.00;5021817;28;19928;-43
2023/12/06 03:41:53;;;;;;;;;;;;;;;22.58;29.85;101052.09;5065161;28;20292;-43
2023/12/06 03:44:19;;;;;;;;;;;;;;;22.58;29.76;101063.78;5006189;28;19914;-45
2023/12/06 03:46:44;;;;;;;;;;;;;;;22.58;29.79;101060.22;5067404;28;19912;-43
2023/12/06 03:49:09;;;;;;;;;;;;;;;22.55;29.74;101055.19;5024607;28;19916;-42
2023/12/06 03:51:34;;;;;;;;;;;;;;;22.51;29.77;101068.25;5016988;28;19951;-44
2023/12/06 03:53:59;;;;;;;;;;;;;;;22.50;29.81;101063.88;5019462;28;19921;-44
2023/12/06 03:56:25;;;;;;;;;;;;;;;22.49;29.98;101064.06;5011677;28;19925;-43
2023/12/06 03:58:50;;;;;;;;;;;;;;;22.51;29.76;101056.59;5012336;28;19961;-42
2023/12/06 04:01:16;;;;;;;;;;;;;;;22.51;29.81;101054.72;5018355;28;20014;-44
2023/12/06 04:03:41;;;;;;;;;;;;;;;22.55;29.58;101057.88;5021451;28;19929;-43
2023/12/06 04:06:07;;;;;;;;;;;;;;;22.54;29.96;101059.75;5016373;28;19940;-42
2023/12/06 04:08:32;;;;;;;;;;;;;;;22.51;29.70;101062.00;5036302;28;20024;-42
2023/12/06 04:10:57;;;;;;;;;;;;;;;22.50;30.04;101066.59;5042309;28;19917;-43
2023/12/06 04:13:22;;;;;;;;;;;;;;;22.54;29.68;101077.91;5005223;28;19987;-44
2023/12/06 04:15:47;;;;;;;;;;;;;;;22.50;29.88;101080.13;5030048;28;19912;-43
2023/12/06 04:18:13;;;;;;;;;;;;;;;22.50;29.98;101076.59;5033716;28;19919;-43
2023/12/06 04:20:38;;;;;;;;;;;;;;;22.48;29.74;101079.50;5011411;28;19925;-44
2023/12/06 04:23:03;;;;;;;;;;;;;;;22.45;30.07;101075.28;5016869;28;19949;-45
2023/12/06 04:25:28;;;;;;;;;;;;;;;22.39;29.95;101075.22;5073176;28;19921;-45
2023/12/06 04:27:54;;;;;;;;;;;;;;;22.41;30.28;101067.72;5063032;28;19954;-45
2023/12/06 04:30:19;;;;;;;;;;;;;;;22.41;29.96;101082.09;5041039;28;19919;-45
2023/12/06 04:32:44;;;;;;;;;;;;;;;22.36;30.01;101072.88;5031853;28;19918;-47
2023/12/06 04:35:09;;;;;;;;;;;;;;;22.33;30.24;101086.78;5022038;28;19928;-45
2023/12/06 04:37:35;;;;;;;;;;;;;;;22.35;30.20;101085.56;5011777;28;19920;-43
2023/12/06 04:40:00;;;;;;;;;;;;;;;22.37;30.30;101088.94;5029587;28;19917;-43
2023/12/06 04:42:25;;;;;;;;;;;;;;;22.35;30.12;101099.13;5067410;28;20324;-44
2023/12/06 04:44:50;;;;;;;;;;;;;;;22.30;30.20;101100.69;5063689;28;19918;-47
2023/12/06 04:47:16;;;;;;;;;;;;;;;22.31;30.12;101091.56;5044476;28;19934;-49
2023/12/06 04:49:41;;;;;;;;;;;;;;;22.33;30.04;101094.91;5024851;28;19923;-48
2023/12/06 04:52:06;;;;;;;;;;;;;;;22.35;29.92;101096.41;5014754;28;19922;-47
2023/12/06 04:54:31;;;;;;;;;;;;;;;22.34;30.18;101096.59;5020120;28;20134;-45
2023/12/06 04:56:58;;;;;;;;;;;;;;;22.32;30.06;101098.66;5034820;28;19914;-45
2023/12/06 04:59:24;;;;;;;;;;;;;;;22.29;30.08;101105.28;5037021;28;19956;-47
2023/12/06 05:01:49;;;;;;;;;;;;;;;22.28;30.14;101108.19;5037233;28;19921;-45
2023/12/06 05:04:14;;;;;;;;;;;;;;;22.25;30.47;101109.38;5030224;28;19916;-46
2023/12/06 05:06:40;;;;;;;;;;;;;;;22.24;30.23;101115.00;5014661;28;19922;-45
2023/12/06 05:09:07;;;;;;;;;;;;;;;22.24;30.11;101109.56;5016746;28;19924;-48
2023/12/06 05:11:32;;;;;;;;;;;;;;;22.24;30.35;101109.56;5020660;28;19914;-48
2023/12/06 05:13:57;;;;;;;;;;;;;;;22.23;30.48;101118.72;5034029;28;19926;-47
2023/12/06 05:16:22;;;;;;;;;;;;;;;22.24;30.33;101121.25;5067004;28;19977;-45
2023/12/06 05:18:48;;;;;;;;;;;;;;;22.24;30.43;101117.69;5036007;28;19920;-44
2023/12/06 05:21:13;;;;;;;;;;;;;;;22.28;30.22;101117.13;5022747;28;19918;-46
2023/12/06 05:23:38;;;;;;;;;;;;;;;22.28;30.14;101117.13;5087885;28;19945;-45
2023/12/06 05:26:04;;;;;;;;;;;;;;;22.26;30.36;101121.91;5029099;28;19936;-46
2023/12/06 05:28:29;;;;;;;;;;;;;;;22.28;30.05;101119.00;5038148;28;19943;-46
2023/12/06 05:30:54;;;;;;;;;;;;;;;22.27;30.30;101123.59;5017288;28;20418;-45
2023/12/06 05:33:19;;;;;;;;;;;;;;;22.25;30.16;101119.38;5018614;28;19920;-45
2023/12/06 05:35:46;;;;;;;;;;;;;;;22.26;30.08;101115.63;5045877;28;19926;-47
2023/12/06 05:38:11;;;;;;;;;;;;;;;22.23;30.49;101116.84;5010762;28;19922;-43
2023/12/06 05:40:36;;;;;;;;;;;;;;;22.20;30.18;101122.63;5084413;28;19923;-46
2023/12/06 05:43:02;;;;;;;;;;;;;;;22.21;30.20;101127.03;5025704;28;19924;-47
2023/12/06 05:45:27;;;;;;;;;;;;;;;22.18;30.50;101128.25;5017077;28;19917;-48
2023/12/06 05:47:52;;;;;;;;;;;;;;;22.19;30.47;101129.94;5020375;28;19918;-45
2023/12/06 05:50:17;;;;;;;;;;;;;;;22.19;30.29;101132.63;5033737;28;19949;-47
2023/12/06 05:52:43;;;;;;;;;;;;;;;22.19;30.29;101134.50;5008443;28;19972;-47
2023/12/06 05:55:08;;;;;;;;;;;;;;;22.21;30.24;101135.97;5028183;28;19928;-46
2023/12/06 05:57:33;;;;;;;;;;;;;;;22.24;30.40;101136.66;5041526;28;19916;-46
2023/12/06 05:59:58;;;;;;;;;;;;;;;22.24;30.29;101134.78;5018740;28;19936;-44
2023/12/06 06:02:24;;;;;;;;;;;;;;;22.24;30.24;101139.38;5007295;28;19925;-47
2023/12/06 06:04:49;;;;;;;;;;;;;;;22.23;30.31;101141.25;5030551;28;19918;-48
2023/12/06 06:07:14;;;;;;;;;;;;;;;22.22;30.17;101147.69;5028288;28;20242;-45
2023/12/06 06:09:39;;;;;;;;;;;;;;;22.16;30.55;101143.00;5034496;28;19913;-49
2023/12/06 06:12:07;;;;;;;;;;;;;;;22.10;30.40;101141.00;5048242;28;19994;-43
2023/12/06 06:14:32;;;;;;;;;;;;;;;22.06;30.85;101150.50;5025944;28;19926;-48
2023/12/06 06:16:57;;;;;;;;;;;;;;;22.00;30.88;101154.78;5010574;28;19920;-48
2023/12/06 06:19:22;;;;;;;;;;;;;;;21.95;31.13;101158.03;5025597;28;19970;-45
2023/12/06 06:21:47;;;;;;;;;;;;;;;21.92;30.96;101154.88;5014970;28;19974;-45
2023/12/06 06:24:13;;;;;;;;;;;;;;;21.88;31.25;101151.69;5032825;28;19914;-47
2023/12/06 06:26:38;;;;;;;;;;;;;;;21.84;31.32;101158.50;5052152;28;19914;-46
2023/12/06 06:29:07;;;;;;;;;;;;;;;21.83;31.49;101158.66;5028375;28;19942;-47
2023/12/06 06:31:33;;;;;;;;;;;;;;;21.83;31.63;101169.47;5016255;28;19948;-48
2023/12/06 06:34:01;;;;;;;;;;;;;;;21.81;31.71;101176.94;5019223;28;19917;-43
2023/12/06 06:36:26;;;;;;;;;;;;;;;21.80;31.46;101176.13;5032531;28;19918;-47
2023/12/06 06:38:51;;;;;;;;;;;;;;;21.81;31.86;101177.78;5028733;28;19977;-47
2023/12/06 06:41:17;;;;;;;;;;;;;;;21.82;31.48;101181.34;5031521;28;19918;-45
2023/12/06 06:43:42;;;;;;;;;;;;;;;21.81;31.63;101176.94;5035040;28;19922;-48
2023/12/06 06:46:07;;;;;;;;;;;;;;;21.79;32.06;101190.69;5009174;28;19914;-49
2023/12/06 06:48:32;;;;;;;;;;;;;;;21.78;32.02;101186.25;5006155;28;19916;-45
2023/12/06 06:50:58;;;;;;;;;;;;;;;21.79;32.02;101192.50;5012391;28;19929;-46
2023/12/06 06:53:24;;;;;;;;;;;;;;;21.79;31.97;101195.22;5017235;28;19929;-50
2023/12/06 06:55:49;;;;;;;;;;;;;;;21.80;31.73;101194.22;5007887;28;19933;-50
2023/12/06 06:58:16;;;;;;;;;;;;;;;21.80;31.72;101199.63;5009719;28;20312;-50
2023/12/06 07:00:41;;;;;;;;;;;;;;;21.82;32.04;101203.00;5017656;28;19926;-48
2023/12/06 07:03:06;;;;;;;;;;;;;;;21.82;31.72;101206.53;5003810;28;19920;-47
2023/12/06 07:05:32;;;;;;;;;;;;;;;21.82;31.77;101209.25;5011547;28;19916;-49
2023/12/06 07:07:58;;;;;;;;;;;;;;;21.80;31.87;101214.00;5003555;28;19913;-48
2023/12/06 07:10:23;;;;;;;;;;;;;;;21.81;32.03;101212.97;5005621;28;19925;-50
2023/12/06 07:12:48;;;;;;;;;;;;;;;21.82;31.98;101217.38;5001435;28;20036;-48
2023/12/06 07:15:17;;;;;;;;;;;;;;;21.81;31.90;101217.56;5011909;28;19928;-46
2023/12/06 07:17:45;;;;;;;;;;;;;;;21.84;32.10;101220.75;5008184;28;19925;-48
2023/12/06 07:20:13;;;;;;;;;;;;;;;21.82;31.98;101228.19;5017710;28;19946;-48
2023/12/06 07:22:39;;;;;;;;;;;;;;;21.81;32.29;101223.81;5020855;28;19913;-45
2023/12/06 07:25:05;;;;;;;;;;;;;;;21.79;32.49;101222.28;5020545;28;19924;-45
2023/12/06 07:27:30;;;;;;;;;;;;;;;21.74;32.59;101225.53;5064006;28;19928;-45
2023/12/06 07:29:55;;;;;;;;;;;;;;;21.72;32.45;101224.88;5037743;28;19914;-46
2023/12/06 07:32:21;;;;;;;;;;;;;;;21.69;32.46;101231.50;5027298;28;19946;-45
2023/12/06 07:34:47;;;;;;;;;;;;;;;21.68;32.38;101220.84;5003229;28;19943;-44
2023/12/06 07:37:12;;;;;;;;;;;;;;;21.68;32.25;101221.69;5042708;28;19923;-46
2023/12/06 07:39:37;;;;;;;;;;;;;;;21.67;32.53;101232.72;5022485;28;19942;-44
2023/12/06 07:42:02;;;;;;;;;;;;;;;21.65;32.60;101240.16;5008998;28;20280;-48
2023/12/06 07:44:28;;;;;;;;;;;;;;;21.66;32.51;101239.13;5021118;28;19982;-45
2023/12/06 07:46:53;;;;;;;;;;;;;;;21.64;32.46;101247.44;5057702;28;20375;-45
2023/12/06 07:49:18;;;;;;;;;;;;;;;21.63;32.61;101245.75;5050353;28;19913;-45
2023/12/06 07:51:43;;;;;;;;;;;;;;;21.63;32.61;101256.56;5039752;28;19913;-45
2023/12/06 07:54:09;;;;;;;;;;;;;;;21.64;32.48;101254.72;5032614;28;20354;-46
2023/12/06 07:56:35;;;;;;;;;;;;;;;21.64;32.72;101254.72;5016642;28;19922;-45
2023/12/06 07:59:00;;;;;;;;;;;;;;;21.63;32.32;101242.22;5030994;28;19959;-46
2023/12/06 08:01:29;;;;;;;;;;;;;;;21.67;32.41;101262.47;5035334;28;19921;-48
2023/12/06 08:03:54;;;;;;;;;;;;;;;21.64;32.45;101263.66;5023398;28;20009;-44
2023/12/06 08:06:19;;;;;;;;;;;;;;;21.64;32.75;101266.38;5044102;28;20031;-46
2023/12/06 08:08:44;;;;;;;;;;;;;;;21.65;32.57;101268.06;5041860;28;19916;-44
2023/12/06 08:11:10;;;;;;;;;;;;;;;21.65;32.64;101268.06;5017446;28;19917;-45
2023/12/06 08:13:35;;;;;;;;;;;;;;;21.65;32.45;101275.31;5018001;28;19918;-46
2023/12/06 08:16:00;;;;;;;;;;;;;;;21.66;32.63;101277.00;5028314;28;19918;-43
2023/12/06 08:18:25;;;;;;;;;;;;;;;21.66;32.69;101274.31;5036786;28;19984;-45
2023/12/06 08:20:51;;;;;;;;;;;;;;;21.68;32.44;101278.53;5024546;28;20173;-47
2023/12/06 08:23:16;;;;;;;;;;;;;;;21.70;32.58;101284.59;5070650;28;19923;-45
2023/12/06 08:25:41;;;;;;;;;;;;;;;21.73;32.49;101279.84;5023586;28;19924;-48
2023/12/06 08:28:06;;;;;;;;;;;;;;;21.75;32.29;101280.50;5018523;28;19957;-45
2023/12/06 08:30:32;;;;;;;;;;;;;;;21.78;32.54;101277.44;5034422;28;19928;-44
2023/12/06 08:32:57;;;;;;;;;;;;;;;21.79;32.34;101277.28;5022966;28;19912;-49
2023/12/06 08:35:22;;;;;;;;;;;;;;;21.82;32.30;101276.06;5028840;28;19921;-45
2023/12/06 08:37:47;;;;;;;;;;;;;;;21.82;32.19;101273.38;5026683;28;19917;-45
2023/12/06 08:40:12;;;;;;;;;;;;;;;21.83;32.15;101286.72;5071096;28;19913;-45
2023/12/06 08:42:38;;;;;;;;;;;;;;;21.83;32.13;101288.56;5015694;28;20287;-47
2023/12/06 08:45:04;;;;;;;;;;;;;;;21.85;32.09;101289.25;5012092;28;19917;-48
2023/12/06 08:47:29;;;;;;;;;;;;;;;21.86;32.27;101280.94;5037242;28;19913;-48
2023/12/06 08:49:54;;;;;;;;;;;;;;;21.88;32.17;101287.03;5013757;28;20342;-49
2023/12/06 08:52:19;;;;;;;;;;;;;;;21.89;32.18;101286.00;5017827;28;19952;-45
2023/12/06 08:54:44;;;;;;;;;;;;;;;21.90;31.98;101284.97;5032298;28;19920;-45
2023/12/06 08:57:11;;;;;;;;;;;;;;;21.90;32.13;101284.97;5009591;28;19923;-49
2023/12/06 08:59:36;;;;;;;;;;;;;;;21.91;31.80;101288.53;5074059;28;19918;-46
2023/12/06 09:02:02;;;;;;;;;;;;;;;21.92;32.13;101291.06;5026459;28;20294;-47
2023/12/06 09:04:28;;;;;;;;;;;;;;;21.94;31.72;101293.59;5034975;28;19938;-47
2023/12/06 09:06:53;;;;;;;;;;;;;;;21.92;31.85;101285.66;5028458;28;19913;-44
2023/12/06 09:09:18;;;;;;;;;;;;;;;21.93;32.09;101291.91;5026771;28;20006;-45
2023/12/06 09:11:44;;;;;;;;;;;;;;;21.94;32.09;101293.59;5041927;28;19919;-46
2023/12/06 09:14:10;;;;;;;;;;;;;;;21.96;31.85;101297.81;5069350;28;19948;-48
2023/12/06 09:16:36;;;;;;;;;;;;;;;22.01;31.60;101296.44;5037122;28;19912;-47
2023/12/06 09:19:01;;;;;;;;;;;;;;;22.03;31.71;101306.06;5030014;28;19912;-46
2023/12/06 09:21:27;;;;;;;;;;;;;;;22.06;31.64;101313.81;5021144;28;20389;-44
2023/12/06 09:23:52;;;;;;;;;;;;;;;22.08;31.50;101310.94;5021470;28;19918;-45
2023/12/06 09:26:19;;;;;;;;;;;;;;;22.09;31.43;101313.47;5044794;28;19917;-46
2023/12/06 09:28:44;;;;;;;;;;;;;;;22.09;31.40;101318.88;5019517;28;19980;-46
2023/12/06 09:31:10;;;;;;;;;;;;;;;22.12;31.59;101320.38;5063508;28;19912;-47
2023/12/06 09:33:35;;;;;;;;;;;;;;;22.08;31.39;101327.16;5036505;28;19920;-46
2023/12/06 09:36:00;;;;;;;;;;;;;;;22.07;31.57;101330.91;5022052;28;20001;-44
2023/12/06 09:38:25;;;;;;;;;;;;;;;22.09;31.62;101331.56;5015657;28;19914;-46
2023/12/06 09:40:50;;;;;;;;;;;;;;;22.06;31.62;101327.34;5023968;28;19926;-48
2023/12/06 09:43:17;;;;;;;;;;;;;;;22.09;31.27;101332.44;5032159;28;19913;-45
2023/12/06 09:45:42;;;;;;;;;;;;;;;22.07;31.62;101342.59;5030680;28;19918;-47
2023/12/06 09:48:07;;;;;;;;;;;;;;;22.07;31.37;101341.75;5069848;28;19913;-48
2023/12/06 09:50:33;;;;;;;;;;;;;;;22.06;31.31;101345.47;5023344;28;19955;-46
2023/12/06 09:52:58;;;;;;;;;;;;;;;22.08;31.54;101343.41;5014436;28;20186;-46
2023/12/06 09:55:26;;;;;;;;;;;;;;;22.07;31.59;101342.59;5026181;28;19981;-46
2023/12/06 09:57:51;;;;;;;;;;;;;;;22.08;31.67;101351.53;5049007;28;19919;-46
2023/12/06 10:00:17;;;;;;;;;;;;;;;22.07;31.29;101345.28;5047315;28;20012;-46
2023/12/06 10:02:49;;;;;;;;;;;;;;;22.09;31.23;101342.38;5018965;28;19933;-43
2023/12/06 10:05:14;;;;;;;;;;;;;;;22.09;31.34;101342.38;5014932;28;19914;-45
2023/12/06 10:07:39;;;;;;;;;;;;;;;22.09;31.62;101347.81;5010338;28;19921;-44
2023/12/06 10:10:09;;;;;;;;;;;;;;;22.09;31.30;101347.81;5063869;28;19914;-44
2023/12/06 10:12:44;;;;;;;;;;;;;;;22.11;31.54;101356.59;5071558;28;19935;-45
2023/12/06 10:15:10;;;;;;;;;;;;;;;22.10;31.20;101357.63;5069277;28;19916;-46
2023/12/06 10:17:35;;;;;;;;;;;;;;;22.12;31.24;101355.59;5032094;28;19914;-48
2023/12/06 10:20:01;;;;;;;;;;;;;;;22.14;31.19;101359.00;5041319;28;19936;-48
2023/12/06 10:22:26;;;;;;;;;;;;;;;22.14;31.15;101359.84;5072964;28;19935;-45
2023/12/06 10:24:54;;;;;;;;;;;;;;;22.14;31.18;101365.25;5009508;28;19922;-46
2023/12/06 10:27:21;;;;;;;;;;;;;;;22.16;31.52;101354.22;5021307;28;19928;-46
2023/12/06 10:29:46;;;;;;;;;;;;;;;22.16;31.31;101363.19;5025596;28;19919;-46
2023/12/06 10:32:11;;;;;;;;;;;;;;;22.19;31.33;101354.72;5016730;28;19916;-45
2023/12/06 10:34:36;;;;;;;;;;;;;;;22.20;31.20;101350.16;5061964;28;19949;-47
2023/12/06 10:37:02;;;;;;;;;;;;;;;22.20;31.36;101352.84;5063253;28;19925;-44
2023/12/06 10:39:27;;;;;;;;;;;;;;;22.25;31.32;101346.91;5073010;28;19963;-44
2023/12/06 10:41:53;;;;;;;;;;;;;;;22.25;31.00;101345.03;5040800;28;19961;-46
2023/12/06 10:44:18;;;;;;;;;;;;;;;22.32;30.95;101335.16;5068290;28;19914;-46
2023/12/06 10:46:43;;;;;;;;;;;;;;;22.30;30.96;101337.22;5072494;28;19927;-47
2023/12/06 10:49:09;;;;;;;;;;;;;;;22.29;31.19;101340.09;5062662;28;20433;-45
2023/12/06 10:51:34;;;;;;;;;;;;;;;22.32;30.99;101345.16;5039602;28;19923;-44
2023/12/06 10:53:59;;;;;;;;;;;;;;;22.36;31.03;101346.47;5014079;28;19929;-44
2023/12/06 10:56:26;;;;;;;;;;;;;;;22.36;31.04;101350.03;5040687;28;19934;-43
2023/12/06 10:58:52;;;;;;;;;;;;;;;22.43;30.96;101356.44;5063926;28;20160;-44
2023/12/06 11:01:17;;;;;;;;;;;;;;;22.44;31.09;101347.25;5010168;28;19930;-43
2023/12/06 11:03:42;;;;;;;;;;;;;;;22.49;31.03;101352.13;5018960;28;19924;-43
2023/12/06 11:06:10;;;;;;;;;;;;;;;22.53;30.56;101358.88;5018798;28;20011;-43
2023/12/06 11:08:49;;;;;;;;;;;;;;;22.56;30.64;101368.53;5068203;28;19910;-46
2023/12/06 11:11:43;;;;;;;;;;;;;;;22.59;30.69;101371.69;5068193;28;20257;-46
2023/12/06 11:14:19;;;;;;;;;;;;;;;22.64;30.86;101366.59;5021247;28;20009;-44
2023/12/06 11:17:04;;;;;;;;;;;;;;;22.66;30.53;101363.69;5009136;28;19919;-43
2023/12/06 11:19:30;;;;;;;;;;;;;;;22.72;30.69;101360.22;5013951;28;19914;-43
2023/12/06 11:21:55;;;;;;;;;;;;;;;22.69;30.44;101355.19;5038160;28;19921;-43
2023/12/06 11:24:20;;;;;;;;;;;;;;;22.62;30.68;101354.22;5035185;28;19917;-43
2023/12/06 11:26:45;;;;;;;;;;;;;;;22.57;30.98;101370.19;5041212;28;19913;-45
2023/12/06 11:29:11;;;;;;;;;;;;;;;22.52;30.73;101361.78;5043369;28;19968;-44
2023/12/06 11:31:37;;;;;;;;;;;;;;;22.51;31.06;101358.19;5067065;28;19914;-46
2023/12/06 11:34:03;;;;;;;;;;;;;;;22.54;31.22;101349.72;5023432;28;19922;-46
2023/12/06 11:36:29;;;;;;;;;;;;;;;22.54;30.96;101347.00;5025737;28;19918;-45
2023/12/06 11:38:54;;;;;;;;;;;;;;;22.55;31.17;101354.09;5045063;28;19920;-44
2023/12/06 11:41:20;;;;;;;;;;;;;;;22.57;31.13;101359.38;5024419;28;19913;-45
2023/12/06 11:43:50;;;;;;;;;;;;;;;22.61;31.00;101357.97;5033269;28;19921;-45
2023/12/06 11:46:15;;;;;;;;;;;;;;;22.70;30.88;101359.59;5024292;28;19942;-44
2023/12/06 11:48:43;;;;;;;;;;;;;;;22.75;30.88;101359.03;5072955;28;19963;-44
2023/12/06 11:51:15;;;;;;;;;;;;;;;22.81;30.83;101356.44;5019952;28;19943;-45
2023/12/06 11:53:41;;;;;;;;;;;;;;;22.85;30.78;101360.47;5019282;28;19920;-43
2023/12/06 11:56:08;;;;;;;;;;;;;;;22.91;30.32;101359.75;5041596;28;19920;-43
2023/12/06 11:58:34;;;;;;;;;;;;;;;22.95;30.31;101360.25;5036111;28;19920;-44
2023/12/06 12:00:59;;;;;;;;;;;;;;;23.00;30.56;101362.38;5030424;28;19918;-46
2023/12/06 12:03:25;;;;;;;;;;;;;;;23.05;30.30;101359.97;5013353;28;19912;-46
2023/12/06 12:05:50;;;;;;;;;;;;;;;23.10;30.34;101355.66;5069304;28;19918;-45
2023/12/06 12:08:16;;;;;;;;;;;;;;;23.11;30.25;101360.06;5029471;28;19914;-47
2023/12/06 12:10:41;;;;;;;;;;;;;;;23.16;30.44;101356.81;5023963;28;19918;-45
2023/12/06 12:13:18;;;;;;;;;;;;;;;23.18;30.49;101368.28;5016584;28;20360;-49
2023/12/06 12:15:54;;;;;;;;;;;;;;;23.19;30.46;101362.72;5046702;28;20002;-45
2023/12/06 12:18:20;;;;;;;;;;;;;;;23.25;30.27;101368.41;5003930;28;19917;-46
2023/12/06 12:20:45;;;;;;;;;;;;;;;23.28;29.99;101373.44;5089660;28;19920;-47
2023/12/06 12:23:10;;;;;;;;;;;;;;;23.30;30.15;101366.81;5045562;28;20011;-46
2023/12/06 12:25:36;;;;;;;;;;;;;;;23.31;30.10;101365.78;5026531;28;20398;-48
2023/12/06 12:28:01;;;;;;;;;;;;;;;23.35;30.28;101368.97;5021183;28;19939;-46